Map

Track Data

SID SEASON NUMBER BASIN SUBBASIN NAME ISO_TIME NATURE LAT LON WMO_WIND WMO_PRES WMO_AGENCY TRACK_TYPE DIST2LAND LANDFALL IFLAG USA_AGENCY USA_ATCF_ID USA_LAT USA_LON USA_RECORD USA_STATUS USA_WIND USA_PRES USA_SSHS USA_R34_NE USA_R34_SE USA_R34_SW USA_R34_NW USA_R50_NE USA_R50_SE USA_R50_SW USA_R50_NW USA_R64_NE USA_R64_SE USA_R64_SW USA_R64_NW USA_POCI USA_ROCI USA_RMW USA_EYE TOKYO_LAT TOKYO_LON TOKYO_GRADE TOKYO_WIND TOKYO_PRES TOKYO_R50_DIR TOKYO_R50_LONG TOKYO_R50_SHORT TOKYO_R30_DIR TOKYO_R30_LONG TOKYO_R30_SHORT TOKYO_LAND CMA_LAT CMA_LON CMA_CAT CMA_WIND CMA_PRES HKO_LAT HKO_LON HKO_CAT HKO_WIND HKO_PRES NEWDELHI_LAT NEWDELHI_LON NEWDELHI_GRADE NEWDELHI_WIND NEWDELHI_PRES NEWDELHI_CI NEWDELHI_DP NEWDELHI_POCI REUNION_LAT REUNION_LON REUNION_TYPE REUNION_WIND REUNION_PRES REUNION_TNUM REUNION_CI REUNION_RMW REUNION_R34_NE REUNION_R34_SE REUNION_R34_SW REUNION_R34_NW REUNION_R50_NE REUNION_R50_SE REUNION_R50_SW REUNION_R50_NW REUNION_R64_NE REUNION_R64_SE REUNION_R64_SW REUNION_R64_NW BOM_LAT BOM_LON BOM_TYPE BOM_WIND BOM_PRES BOM_TNUM BOM_CI BOM_RMW BOM_R34_NE BOM_R34_SE BOM_R34_SW BOM_R34_NW BOM_R50_NE BOM_R50_SE BOM_R50_SW BOM_R50_NW BOM_R64_NE BOM_R64_SE BOM_R64_SW BOM_R64_NW BOM_ROCI BOM_POCI BOM_EYE BOM_POS_METHOD BOM_PRES_METHOD NADI_LAT NADI_LON NADI_CAT NADI_WIND NADI_PRES WELLINGTON_LAT WELLINGTON_LON WELLINGTON_WIND WELLINGTON_PRES DS824_LAT DS824_LON DS824_STAGE DS824_WIND DS824_PRES TD9636_LAT TD9636_LON TD9636_STAGE TD9636_WIND TD9636_PRES TD9635_LAT TD9635_LON TD9635_WIND TD9635_PRES TD9635_ROCI NEUMANN_LAT NEUMANN_LON NEUMANN_CLASS NEUMANN_WIND NEUMANN_PRES MLC_LAT MLC_LON MLC_CLASS MLC_WIND MLC_PRES USA_GUST BOM_GUST BOM_GUST_PER REUNION_GUST REUNION_GUST_PER USA_SEAHGT USA_SEARAD_NE USA_SEARAD_SE USA_SEARAD_SW USA_SEARAD_NW STORM_SPEED STORM_DIR
1965257N12248 1965 93 EP MM GLENDA 1965-09-13 12:00:00 TS 12.0000 -111.900 45 hurdat_epa main 1107 1107 O________OO___ hurdat_epa EP091965 12.0000 -111.900 TS 45 0 12.0000 -111.900 TC 45 12.0000 -111.900 2 12 275
1965257N12248 1965 93 EP MM GLENDA 1965-09-13 15:00:00 TS 12.0547 -112.505 main 1144 1144 P________PP___ EP091965 12.0603 -112.510 TS 45 0 12.0603 -112.510 TC 45 12.0323 -112.487 2 12 275
1965257N12248 1965 93 EP MM GLENDA 1965-09-13 18:00:00 TS 12.0922 -113.094 45 hurdat_epa main 1190 1190 O________OP___ hurdat_epa EP091965 12.1000 -113.100 TS 45 0 12.1000 -113.100 TC 45 12.0612 -113.070 2 11 272
1965257N12248 1965 93 EP MM GLENDA 1965-09-13 21:00:00 TS 12.1028 -113.654 main 1236 1236 P________PP___ EP091965 12.1073 -113.658 TS 45 0 12.1073 -113.658 TC 45 12.0845 -113.642 2 11 270
1965257N12248 1965 93 EP MM GLENDA 1965-09-14 00:00:00 TS 12.1000 -114.200 45 hurdat_epa main 1276 1276 O________OO___ hurdat_epa EP091965 12.1000 -114.200 TS 45 0 12.1000 -114.200 TC 45 12.1000 -114.200 2 11 270
1965257N12248 1965 93 EP MM GLENDA 1965-09-14 03:00:00 TS 12.0955 -114.748 main 1306 1306 P________PP___ EP091965 12.0924 -114.750 TS 45 0 12.0924 -114.750 TC 45 12.1081 -114.741 2 11 270
1965257N12248 1965 93 EP MM GLENDA 1965-09-14 06:00:00 TS 12.1038 -115.296 45 hurdat_epa main 1332 1332 O________OP___ hurdat_epa EP091965 12.1000 -115.300 TS 45 0 12.1000 -115.300 TC 45 12.1191 -115.278 2 11 272
1965257N12248 1965 93 EP MM GLENDA 1965-09-14 09:00:00 TS 12.1369 -115.833 main 1355 1355 P________PP___ EP091965 12.1348 -115.835 TS 45 0 12.1348 -115.835 TC 45 12.1456 -115.826 2 11 275
1965257N12248 1965 93 EP MM GLENDA 1965-09-14 12:00:00 TS 12.2000 -116.400 45 hurdat_epa main 1375 1375 O________OO___ hurdat_epa EP091965 12.2000 -116.400 TS 45 0 12.2000 -116.400 TC 45 12.2000 -116.400 2 12 277
1965257N12248 1965 93 EP MM GLENDA 1965-09-14 15:00:00 TS 12.2897 -117.035 main 1398 1398 P________PP___ EP091965 12.2849 -117.035 TS 45 0 12.2849 -117.035 TC 45 12.3086 -117.037 2 13 279
1965257N12248 1965 93 EP MM GLENDA 1965-09-14 18:00:00 TS 12.4085 -117.700 45 hurdat_epa main 1429 1429 O________OP___ hurdat_epa EP091965 12.4000 -117.700 TS 45 0 12.4000 -117.700 TC 45 12.4427 -117.699 2 13 282
1965257N12248 1965 93 EP MM GLENDA 1965-09-14 21:00:00 TS 12.5620 -118.364 main 1454 1454 P________PP___ EP091965 12.5574 -118.365 TS 45 0 12.5574 -118.365 TC 45 12.5804 -118.362 2 13 283
1965257N12248 1965 93 EP MM GLENDA 1965-09-15 00:00:00 TS 12.7000 -119.000 45 hurdat_epa main 1485 1485 O________OO___ hurdat_epa EP091965 12.7000 -119.000 TS 45 0 12.7000 -119.000 TC 45 12.7000 -119.000 2 12 280
1965257N12248 1965 93 EP MM GLENDA 1965-09-15 03:00:00 TS 12.7636 -119.571 main 1518 1518 P________PP___ EP091965 12.7648 -119.565 TS 45 0 12.7648 -119.565 TC 45 12.7589 -119.595 2 11 275
1965257N12248 1965 93 EP MM GLENDA 1965-09-15 06:00:00 TS 12.7999 -120.112 45 hurdat_epa main 1554 1554 O________OP___ hurdat_epa EP091965 12.8000 -120.100 TS 45 0 12.8000 -120.100 TC 45 12.7995 -120.161 2 11 274
1965257N12248 1965 93 EP MM GLENDA 1965-09-15 09:00:00 TS 12.8420 -120.671 main 1598 1597 P________PP___ EP091965 12.8425 -120.665 TS 45 0 12.8425 -120.665 TC 45 12.8403 -120.695 2 11 275
1965257N12248 1965 93 EP MM GLENDA 1965-09-15 12:00:00 TS 12.9000 -121.200 45 hurdat_epa main 1628 1628 O________OO___ hurdat_epa EP091965 12.9000 -121.200 TS 45 0 12.9000 -121.200 TC 45 12.9000 -121.200 2 10 279
1965257N12248 1965 93 EP MM GLENDA 1965-09-15 15:00:00 TS 12.9885 -121.673 main 1651 1651 P________PP___ EP091965 12.9848 -121.665 TS 45 0 12.9848 -121.665 TC 45 13.0032 -121.703 2 9 283
1965257N12248 1965 93 EP MM GLENDA 1965-09-15 18:00:00 TS 13.1055 -122.115 45 hurdat_epa main 1668 1668 O________OP___ hurdat_epa EP091965 13.1000 -122.100 TS 45 0 13.1000 -122.100 TC 45 13.1273 -122.175 2 9 286
1965257N12248 1965 93 EP MM GLENDA 1965-09-15 21:00:00 TS 13.2466 -122.580 main 1693 1684 P________PP___ EP091965 13.2425 -122.572 TS 45 0 13.2425 -122.572 TC 45 13.2627 -122.609 2 9 289
1965257N12248 1965 93 EP MM GLENDA 1965-09-16 00:00:00 TS 13.4000 -123.000 45 hurdat_epa main 1704 1702 O________OO___ hurdat_epa EP091965 13.4000 -123.000 TS 45 0 13.4000 -123.000 TC 45 13.4000 -123.000 2 8 293
1965257N12248 1965 93 EP MM GLENDA 1965-09-16 03:00:00 TS 13.5516 -123.328 main 1708 1708 P________PP___ EP091965 13.5574 -123.323 TS 45 0 13.5574 -123.323 TC 45 13.5287 -123.351 2 7 296
1965257N12248 1965 93 EP MM GLENDA 1965-09-16 06:00:00 TS 13.6914 -123.612 45 hurdat_epa main 1722 1722 O________OP___ hurdat_epa EP091965 13.7000 -123.600 TS 45 0 13.7000 -123.600 TC 45 13.6571 -123.660 2 6 294
1965257N12248 1965 93 EP MM GLENDA 1965-09-16 09:00:00 TS 13.8024 -123.914 main 1736 1736 P________PP___ EP091965 13.8075 -123.908 TS 45 0 13.8075 -123.908 TC 45 13.7819 -123.939 2 6 290
1965257N12248 1965 93 EP MM GLENDA 1965-09-16 12:00:00 TS 13.9000 -124.200 45 hurdat_epa main 1750 1750 O________OO___ hurdat_epa EP091965 13.9000 -124.200 TS 45 0 13.9000 -124.200 TC 45 13.9000 -124.200 2 6 290
1965257N12248 1965 93 EP MM GLENDA 1965-09-16 15:00:00 TS 14.0006 -124.461 main 1765 1764 P________PP___ EP091965 14.0000 -124.458 TS 45 0 14.0000 -124.458 TC 45 14.0030 -124.473 2 5 292
1965257N12248 1965 93 EP MM GLENDA 1965-09-16 18:00:00 TS 14.1000 -124.706 45 hurdat_epa main 1772 1772 O________OP___ hurdat_epa EP091965 14.1000 -124.700 TS 45 0 14.1000 -124.700 TC 45 14.0999 -124.730 2 5 292
1965257N12248 1965 93 EP MM GLENDA 1965-09-16 21:00:00 TS 14.1994 -124.961 main 1788 1788 P________PP___ EP091965 14.2000 -124.958 TS 45 0 14.2000 -124.958 TC 45 14.1968 -124.973 2 5 293
1965257N12248 1965 93 EP MM GLENDA 1965-09-17 00:00:00 TS 14.3000 -125.200 45 hurdat_epa main 1796 1796 O________OO___ hurdat_epa EP091965 14.3000 -125.200 TS 45 0 14.3000 -125.200 TC 45 14.3000 -125.200 2 5 294
1965257N12248 1965 93 EP MM GLENDA 1965-09-17 03:00:00 TS 14.3959 -125.408 main 1804 1804 P________PP___ EP091965 14.3925 -125.408 TS 45 0 14.3925 -125.408 TC 45 14.4095 -125.410 2 4 298
1965257N12248 1965 93 EP MM GLENDA 1965-09-17 06:00:00 TS 14.5055 -125.602 45 hurdat_epa main 1813 1813 O________OP___ hurdat_epa EP091965 14.5000 -125.600 TS 45 0 14.5000 -125.600 TC 45 14.5273 -125.608 2 5 303
1965257N12248 1965 93 EP MM GLENDA 1965-09-17 09:00:00 TS 14.6453 -125.800 main 1822 1814 P________PP___ EP091965 14.6425 -125.800 TS 45 0 14.6425 -125.800 TC 45 14.6564 -125.801 2 5 307
1965257N12248 1965 93 EP MM GLENDA 1965-09-17 12:00:00 TS 14.8000 -126.000 45 hurdat_epa main 1823 1823 O________OO___ hurdat_epa EP091965 14.8000 -126.000 TS 45 0 14.8000 -126.000 TC 45 14.8000 -126.000 2 5 308
1965257N12248 1965 93 EP MM GLENDA 1965-09-17 15:00:00 TS 14.9445 -126.199 main 1833 1826 P________PP___ EP091965 14.9425 -126.193 TS 45 0 14.9425 -126.193 TC 45 14.9525 -126.226 2 5 307
1965257N12248 1965 93 EP MM GLENDA 1965-09-17 18:00:00 TS 15.1040 -126.412 45 hurdat_epa main 1835 1831 O________OP___ hurdat_epa EP091965 15.1000 -126.400 TS 45 0 15.1000 -126.400 TC 45 15.1200 -126.458 2 6 308
1965257N12248 1965 93 EP MM GLENDA 1965-09-17 21:00:00 TS 15.2945 -126.657 main 1837 1827 P________PP___ EP091965 15.2925 -126.650 TS 45 0 15.2925 -126.650 TC 45 15.3025 -126.685 2 6 310
1965257N12248 1965 93 EP MM GLENDA 1965-09-18 00:00:00 TS 15.5000 -126.900 45 hurdat_epa main 1834 1831 O________OO___ hurdat_epa EP091965 15.5000 -126.900 TS 45 0 15.5000 -126.900 TC 45 15.5000 -126.900 2 6 313
1965257N12248 1965 93 EP MM GLENDA 1965-09-18 03:00:00 TS 15.6953 -127.108 main 1831 1828 P________PP___ EP091965 15.6925 -127.115 TS 45 0 15.6925 -127.115 TC 45 15.7064 -127.077 2 6 317
1965257N12248 1965 93 EP MM GLENDA 1965-09-18 06:00:00 TS 15.9055 -127.289 45 hurdat_epa main 1828 1818 O________OP___ hurdat_epa EP091965 15.9000 -127.300 TS 45 0 15.9000 -127.300 TC 45 15.9272 -127.243 2 6 325
1965257N12248 1965 93 EP MM GLENDA 1965-09-18 09:00:00 TS 16.1458 -127.436 main 1818 1808 P________PP___ EP091965 16.1424 -127.443 TS 45 0 16.1424 -127.443 TC 45 16.1595 -127.412 2 6 329
1965257N12248 1965 93 EP MM GLENDA 1965-09-18 12:00:00 TS 16.4000 -127.600 45 hurdat_epa main 1808 1800 O________OO___ hurdat_epa EP091965 16.4000 -127.600 TS 45 0 16.4000 -127.600 TC 45 16.4000 -127.600 2 6 323
1965257N12248 1965 93 EP MM GLENDA 1965-09-18 15:00:00 TS 16.6510 -127.836 main 1799 1799 P________PP___ EP091965 16.6500 -127.835 TS 45 0 16.6500 -127.835 TC 45 16.6551 -127.840 2 7 316
1965257N12248 1965 93 EP MM GLENDA 1965-09-18 18:00:00 TS 16.9030 -128.100 45 hurdat_epa main 1806 1806 O________OP___ hurdat_epa EP091965 16.9000 -128.100 TS 45 0 16.9000 -128.100 TC 45 16.9152 -128.100 2 7 315
1965257N12248 1965 93 EP MM GLENDA 1965-09-18 21:00:00 TS 17.1595 -128.364 main 1806 1806 P________PP___ EP091965 17.1575 -128.365 TS 45 0 17.1575 -128.365 TC 45 17.1676 -128.359 2 7 316
1965257N12248 1965 93 EP MM GLENDA 1965-09-19 00:00:00 TS 17.4000 -128.600 45 hurdat_epa main 1807 1800 O________OO___ hurdat_epa EP091965 17.4000 -128.600 TS 45 0 17.4000 -128.600 TC 45 17.4000 -128.600 2 6 320
1965257N12248 1965 93 EP MM GLENDA 1965-09-19 03:00:00 TS 17.6096 -128.764 main 1808 1800 P________PP___ EP091965 17.6149 -128.758 TS 45 0 17.6149 -128.758 TC 45 17.5882 -128.789 2 5 323
1965257N12248 1965 93 EP MM GLENDA 1965-09-19 06:00:00 TS 17.7914 -128.912 45 hurdat_epa main 1801 1801 O________OP___ hurdat_epa EP091965 17.8000 -128.900 TS 45 0 17.8000 -128.900 TC 45 17.7572 -128.958 2 5 316
1965257N12248 1965 93 EP MM GLENDA 1965-09-19 09:00:00 TS 17.9445 -129.099 main 1810 1803 P________PP___ EP091965 17.9500 -129.093 TS 45 0 17.9500 -129.093 TC 45 17.9226 -129.123 2 5 310
1965257N12248 1965 93 EP MM GLENDA 1965-09-19 12:00:00 TS 18.1000 -129.300 45 hurdat_epa main 1812 1812 O________OO___ hurdat_epa EP091965 18.1000 -129.300 TS 45 0 18.1000 -129.300 TC 45 18.1000 -129.300 2 5 313
1965257N12248 1965 93 EP MM GLENDA 1965-09-19 15:00:00 TS 18.2893 -129.495 main 1815 1815 P________PP___ EP091965 18.2850 -129.493 TS 45 0 18.2850 -129.493 TC 45 18.3065 -129.503 2 6 317
1965257N12248 1965 93 EP MM GLENDA 1965-09-19 18:00:00 TS 18.5055 -129.704 45 hurdat_epa main 1818 1818 O________OP___ hurdat_epa EP091965 18.5000 -129.700 TS 45 0 18.5000 -129.700 TC 45 18.5274 -129.720 2 6 317
1965257N12248 1965 93 EP MM GLENDA 1965-09-19 21:00:00 TS 18.7459 -129.945 main 1821 1821 P________PP___ EP091965 18.7425 -129.943 TS 45 0 18.7425 -129.943 TC 45 18.7596 -129.953 2 7 316
1965257N12248 1965 93 EP MM GLENDA 1965-09-20 00:00:00 TS 19.0000 -130.200 45 hurdat_epa main 1828 1828 O________OO___ hurdat_epa EP091965 19.0000 -130.200 TS 45 0 19.0000 -130.200 TC 45 19.0000 -130.200 2 7 317
1965257N12248 1965 93 EP MM GLENDA 1965-09-20 03:00:00 TS 19.2534 -130.449 main 1826 1826 P________PP___ EP091965 19.2499 -130.443 TS 45 0 19.2499 -130.443 TC 45 19.2673 -130.473 2 7 316
1965257N12248 1965 93 EP MM GLENDA 1965-09-20 06:00:00 TS 19.5075 -130.711 45 hurdat_epa main 1840 1840 O________OP___ hurdat_epa EP091965 19.5000 -130.700 TS 45 0 19.5000 -130.700 TC 45 19.5376 -130.757 2 7 314
1965257N12248 1965 93 EP MM GLENDA 1965-09-20 09:00:00 TS 19.7759 -131.014 main 1849 1849 P________PP___ EP091965 19.7726 -131.007 TS 45 0 19.7726 -131.007 TC 45 19.7892 -131.038 2 7 312
1965257N12248 1965 93 EP MM GLENDA 1965-09-20 12:00:00 TS 20.0000 -131.300 45 hurdat_epa main 1864 1864 O________OO___ hurdat_epa EP091965 20.0000 -131.300 TS 45 0 20.0000 -131.300 TC 45 20.0000 -131.300 2 6 306
1965257N12248 1965 93 EP MM GLENDA 1965-09-20 15:00:00 TS 20.1249 -131.515 main 1876 1876 P________PP___ EP091965 20.1224 -131.515 TS 45 0 20.1224 -131.515 TC 45 20.1347 -131.514 2 4 299
1965257N12248 1965 93 EP MM GLENDA 1965-09-20 18:00:00 TS 20.2059 -131.702 45 hurdat_epa main 1889 1889 O________OP___ hurdat_epa EP091965 20.2000 -131.700 TS 45 0 20.2000 -131.700 TC 45 20.2296 -131.708 2 4 296
1965257N12248 1965 93 EP MM GLENDA 1965-09-20 21:00:00 TS 20.2959 -131.894 main 1901 1901 P________PP___ EP091965 20.2924 -131.893 TS 45 0 20.2924 -131.893 TC 45 20.3097 -131.898 2 4 297
1965257N12248 1965 93 EP MM GLENDA 1965-09-21 00:00:00 TS 20.4000 -132.100 45 hurdat_epa main 1914 1914 O________OO___ hurdat_epa EP091965 20.4000 -132.100 TS 45 0 20.4000 -132.100 TC 45 20.4000 -132.100 2 5 300
1965257N12248 1965 93 EP MM GLENDA 1965-09-21 03:00:00 TS 20.5428 -132.342 main 1927 1927 P________PP___ EP091965 20.5425 -132.343 TS 45 0 20.5425 -132.343 TC 45 20.5438 -132.340 2 6 303
1965257N12248 1965 93 EP MM GLENDA 1965-09-21 06:00:00 TS 20.7000 -132.598 45 hurdat_epa main 1935 1932 O________OP___ hurdat_epa EP091965 20.7000 -132.600 TS 45 0 20.7000 -132.600 TC 45 20.7000 -132.592 2 6 303
1965257N12248 1965 93 EP MM GLENDA 1965-09-21 09:00:00 TS 20.8573 -132.856 main 1935 1932 P________PP___ EP091965 20.8575 -132.857 TS 45 0 20.8575 -132.857 TC 45 20.8563 -132.849 2 6 303
1965257N12248 1965 93 EP MM GLENDA 1965-09-21 12:00:00 TS 21.0000 -133.100 45 hurdat_epa main 1939 1936 O________OO___ hurdat_epa EP091965 21.0000 -133.100 TS 45 0 21.0000 -133.100 TC 45 21.0000 -133.100 2 5 301
1965257N12248 1965 93 EP MM GLENDA 1965-09-21 15:00:00 TS 21.1072 -133.306 main 1942 1940 P________PP___ EP091965 21.1074 -133.300 TS 45 0 21.1074 -133.300 TC 45 21.1061 -133.328 2 4 297
1965257N12248 1965 93 EP MM GLENDA 1965-09-21 18:00:00 TS 21.2000 -133.510 45 hurdat_epa main 1946 1944 O________OP___ hurdat_epa EP091965 21.2000 -133.500 TS 45 0 21.2000 -133.500 TC 45 21.1998 -133.550 2 5 294
1965257N12248 1965 93 EP MM GLENDA 1965-09-21 21:00:00 TS 21.2927 -133.749 main 1950 1950 P________PP___ EP091965 21.2925 -133.743 TS 45 0 21.2925 -133.743 TC 45 21.2936 -133.772 2 5 294
1965257N12248 1965 93 EP MM GLENDA 1965-09-22 00:00:00 TS 21.4000 -134.000 45 hurdat_epa main 1961 1959 O________OO___ hurdat_epa EP091965 21.4000 -134.000 TS 45 0 21.4000 -134.000 TC 45 21.4000 -134.000 2 5 298
1965257N12248 1965 93 EP MM GLENDA 1965-09-22 03:00:00 TS 21.5396 -134.248 main 1965 1962 P________PP___ EP091965 21.5425 -134.250 TS 45 0 21.5425 -134.250 TC 45 21.5284 -134.239 2 5 302
1965257N12248 1965 93 EP MM GLENDA 1965-09-22 06:00:00 TS 21.6951 -134.497 45 hurdat_epa main 1969 1967 O________OP___ hurdat_epa EP091965 21.7000 -134.500 TS 45 0 21.7000 -134.500 TC 45 21.6754 -134.487 2 6 304
1965257N12248 1965 93 EP MM GLENDA 1965-09-22 09:00:00 TS 21.8490 -134.748 main 1974 1971 P________PP___ EP091965 21.8526 -134.750 TS 45 0 21.8526 -134.750 TC 45 21.8347 -134.742 2 6 303
1965257N12248 1965 93 EP MM GLENDA 1965-09-22 12:00:00 TS 22.0000 -135.000 45 hurdat_epa main 1978 O________OO___ hurdat_epa EP091965 22.0000 -135.000 TS 45 0 22.0000 -135.000 TC 45 22.0000 -135.000 2 6 303

About IBTrACS Database

This database is a web-friendly format of International Best Track Archive for Climate Stewardship (IBTrACS), a global best track data archive curated by NOAA dating back to 1842.

Updated: 2021-10-08